createdAt,value
2023-05-22T00:01:56.924Z,1013.845
2023-05-22T00:06:56.877Z,1013.802
2023-05-22T00:11:57.234Z,1013.818
2023-05-22T00:16:58.481Z,1013.821
2023-05-22T00:21:56.893Z,1013.816
2023-05-22T00:26:56.850Z,1013.784
2023-05-22T00:31:56.849Z,1013.729
2023-05-22T00:36:56.894Z,1013.682
2023-05-22T00:41:56.912Z,1013.612
2023-05-22T00:46:57.168Z,1013.627
2023-05-22T00:51:56.974Z,1013.639
2023-05-22T00:56:57.126Z,1013.548
2023-05-22T01:01:57.084Z,1013.62
2023-05-22T01:06:57.046Z,1013.513
2023-05-22T01:12:02.284Z,1013.494
2023-05-22T01:17:01.988Z,1013.495
2023-05-22T01:22:03.735Z,1013.482
2023-05-22T01:27:06.590Z,1013.392
2023-05-22T01:31:59.350Z,1013.342
2023-05-22T01:36:57.107Z,1013.313
2023-05-22T01:41:57.001Z,1013.319
2023-05-22T01:47:00.398Z,1013.257
2023-05-22T01:52:02.773Z,1013.226
2023-05-22T01:56:59.025Z,1013.137
2023-05-22T02:01:59.092Z,1013.15
2023-05-22T02:06:57.341Z,1013.1
2023-05-22T02:11:57.042Z,1013.048
2023-05-22T02:16:58.009Z,1012.983
2023-05-22T02:21:56.962Z,1012.939
2023-05-22T02:26:56.959Z,1012.986
2023-05-22T02:31:57.379Z,1012.97
2023-05-22T02:36:57.070Z,1012.987
2023-05-22T02:41:57.009Z,1013.027
2023-05-22T02:46:57.255Z,1013.02
2023-05-22T02:51:57.051Z,1013.007
2023-05-22T02:56:56.988Z,1013.019
2023-05-22T03:01:57.014Z,1012.96
2023-05-22T03:06:57.038Z,1012.901
2023-05-22T03:11:57.063Z,1012.843
2023-05-22T03:16:57.086Z,1012.791
2023-05-22T03:21:57.622Z,1012.756
2023-05-22T03:26:57.029Z,1012.742
2023-05-22T03:31:57.894Z,1012.729
2023-05-22T03:36:57.811Z,1012.745
2023-05-22T03:41:57.095Z,1012.709
2023-05-22T03:46:57.100Z,1012.693
2023-05-22T03:51:57.094Z,1012.612
2023-05-22T03:56:57.213Z,1012.584
2023-05-22T04:01:57.981Z,1012.56
2023-05-22T04:06:58.115Z,1012.595
2023-05-22T04:11:57.089Z,1012.593
2023-05-22T04:16:57.253Z,1012.584
2023-05-22T04:21:57.097Z,1012.612
2023-05-22T04:26:59.944Z,1012.532
2023-05-22T04:31:57.322Z,1012.554
2023-05-22T04:36:57.112Z,1012.575
2023-05-22T04:41:58.189Z,1012.584
2023-05-22T04:46:57.321Z,1012.602
2023-05-22T04:51:57.317Z,1012.573
2023-05-22T04:56:57.181Z,1012.612
2023-05-22T05:01:57.236Z,1012.638
2023-05-22T05:06:57.555Z,1012.72
2023-05-22T05:11:58.129Z,1012.695
2023-05-22T05:16:58.687Z,1012.775
2023-05-22T05:21:57.290Z,1012.793
2023-05-22T05:26:57.584Z,1012.795
2023-05-22T05:31:57.224Z,1012.887
2023-05-22T05:36:57.184Z,1012.871
2023-05-22T05:41:57.176Z,1012.861
2023-05-22T05:46:57.864Z,1012.852
2023-05-22T05:51:57.158Z,1012.873
2023-05-22T05:56:57.154Z,1012.871
2023-05-22T06:01:57.119Z,1012.9
2023-05-22T06:06:57.180Z,1012.972
2023-05-22T06:11:57.159Z,1012.966
2023-05-22T06:16:57.346Z,1012.983
2023-05-22T06:21:57.189Z,1013.008
2023-05-22T06:26:57.172Z,1013.061
2023-05-22T06:31:57.308Z,1013.054
2023-05-22T06:36:57.304Z,1013.126
2023-05-22T06:41:57.292Z,1013.14
2023-05-22T06:46:57.342Z,1013.186
2023-05-22T06:51:57.242Z,1013.246
2023-05-22T06:56:57.205Z,1013.283
2023-05-22T07:01:57.222Z,1013.279
2023-05-22T07:06:57.264Z,1013.361
2023-05-22T07:11:57.262Z,1013.388
2023-05-22T07:16:57.277Z,1013.366
2023-05-22T07:21:58.592Z,1013.365
2023-05-22T07:26:57.269Z,1013.364
2023-05-22T07:31:57.376Z,1013.46
2023-05-22T07:36:57.239Z,1013.511
2023-05-22T07:41:58.844Z,1013.53
2023-05-22T07:46:57.380Z,1013.511
2023-05-22T07:51:57.293Z,1013.52
2023-05-22T07:56:57.410Z,1013.546
2023-05-22T08:01:58.380Z,1013.58
2023-05-22T08:06:57.303Z,1013.485
2023-05-22T08:11:57.333Z,1013.523
2023-05-22T08:16:58.910Z,1013.537
2023-05-22T08:21:58.166Z,1013.505
2023-05-22T08:26:58.117Z,1013.514
2023-05-22T08:31:58.181Z,1013.418
2023-05-22T08:36:57.258Z,1013.446
2023-05-22T08:41:57.367Z,1013.475
2023-05-22T08:46:59.598Z,1013.427
2023-05-22T08:51:59.900Z,1013.39
2023-05-22T08:56:57.825Z,1013.352
2023-05-22T09:01:57.925Z,1013.361
2023-05-22T09:06:57.417Z,1013.353
2023-05-22T09:11:58.603Z,1013.356
2023-05-22T09:16:57.520Z,1013.316
2023-05-22T09:22:06.175Z,1013.361
2023-05-22T09:26:57.347Z,1013.301
2023-05-22T09:31:57.675Z,1013.258
2023-05-22T09:36:57.670Z,1013.282
2023-05-22T09:41:57.442Z,1013.255
2023-05-22T09:46:58.303Z,1013.218
2023-05-22T09:51:58.205Z,1013.208
2023-05-22T09:57:00.192Z,1013.245
2023-05-22T10:01:57.636Z,1013.225
2023-05-22T10:06:58.159Z,1013.159
2023-05-22T10:11:58.934Z,1013.169
2023-05-22T10:17:01.982Z,1013.169
2023-05-22T10:21:57.886Z,1013.198
2023-05-22T10:26:58.156Z,1013.11
2023-05-22T10:31:59.550Z,1013.145
2023-05-22T10:37:17.332Z,1013.098
2023-05-22T10:41:57.476Z,1012.994
2023-05-22T10:46:57.482Z,1012.966
2023-05-22T10:51:59.229Z,1012.948
2023-05-22T10:57:07.500Z,1012.91
2023-05-22T11:02:04.041Z,1012.947
2023-05-22T11:07:07.682Z,1012.945
2023-05-22T11:12:08.561Z,1012.915
2023-05-22T11:17:03.611Z,1012.869
2023-05-22T11:22:03.851Z,1012.907
2023-05-22T11:27:09.492Z,1012.811
2023-05-22T11:31:58.220Z,1012.81
2023-05-22T11:37:01.345Z,1012.852
2023-05-22T11:41:57.612Z,1012.839
2023-05-22T11:46:57.632Z,1012.81
2023-05-22T11:51:57.558Z,1012.727
2023-05-22T11:56:57.524Z,1012.663
2023-05-22T12:01:57.877Z,1012.62
2023-05-22T12:06:58.119Z,1012.664
2023-05-22T12:11:58.645Z,1012.611
2023-05-22T12:16:59.412Z,1012.594
2023-05-22T12:21:58.297Z,1012.615
2023-05-22T12:26:57.652Z,1012.643
2023-05-22T12:31:57.700Z,1012.568
2023-05-22T12:36:57.626Z,1012.604
2023-05-22T12:41:57.597Z,1012.566
2023-05-22T12:46:57.631Z,1012.517
2023-05-22T12:51:57.639Z,1012.539
2023-05-22T12:56:57.587Z,1012.482
2023-05-22T13:02:01.876Z,1012.442
2023-05-22T13:06:57.668Z,1012.412
2023-05-22T13:11:57.713Z,1012.338
2023-05-22T13:16:57.629Z,1012.393
2023-05-22T13:21:57.622Z,1012.408
2023-05-22T13:26:57.686Z,1012.407
2023-05-22T13:31:57.685Z,1012.341
2023-05-22T13:36:57.738Z,1012.315
2023-05-22T13:41:58.979Z,1012.302
2023-05-22T13:46:57.713Z,1012.28
2023-05-22T13:51:57.686Z,1012.323
2023-05-22T13:56:59.735Z,1012.34
2023-05-22T14:01:57.887Z,1012.323
2023-05-22T14:06:57.721Z,1012.227
2023-05-22T14:11:57.818Z,1012.243
2023-05-22T14:16:57.833Z,1012.171
2023-05-22T14:21:57.737Z,1012.229
2023-05-22T14:26:58.211Z,1012.291
2023-05-22T14:31:59.328Z,1012.294
2023-05-22T14:36:58.340Z,1012.432
2023-05-22T14:41:57.866Z,1012.51
2023-05-22T14:46:57.947Z,1012.578
2023-05-22T14:51:57.756Z,1012.625
2023-05-22T14:56:57.767Z,1012.599
2023-05-22T15:01:57.814Z,1012.668
2023-05-22T15:06:57.742Z,1012.773
2023-05-22T15:11:57.817Z,1012.896
2023-05-22T15:16:57.757Z,1012.902
2023-05-22T15:22:08.885Z,1012.893
2023-05-22T15:26:57.730Z,1012.917
2023-05-22T15:31:57.805Z,1012.978
2023-05-22T15:36:57.814Z,1012.946
2023-05-22T15:42:05.815Z,1013.065
2023-05-22T15:46:58.682Z,1013.052
2023-05-22T15:51:57.849Z,1013.077
2023-05-22T15:56:57.743Z,1013.089
2023-05-22T16:01:57.797Z,1013.092
2023-05-22T16:06:57.750Z,1013.003
2023-05-22T16:11:57.830Z,1013.103
2023-05-22T16:16:57.793Z,1013.154
2023-05-22T16:21:57.800Z,1013.148
2023-05-22T16:26:57.854Z,1013.199
2023-05-22T16:31:57.887Z,1013.26
2023-05-22T16:36:57.816Z,1013.365
2023-05-22T16:41:57.819Z,1013.327
2023-05-22T16:46:57.879Z,1013.31
2023-05-22T16:51:57.906Z,1013.34
2023-05-22T16:56:57.871Z,1013.373
2023-05-22T17:01:57.892Z,1013.472
2023-05-22T17:06:59.036Z,1013.542
2023-05-22T17:11:58.025Z,1013.544
2023-05-22T17:16:58.554Z,1013.588
2023-05-22T17:21:57.840Z,1013.633
2023-05-22T17:26:57.910Z,1013.651
2023-05-22T17:31:57.862Z,1013.672
2023-05-22T17:36:59.231Z,1013.682
2023-05-22T17:41:59.668Z,1013.626
2023-05-22T17:46:57.908Z,1013.643
2023-05-22T17:51:57.887Z,1013.715
2023-05-22T17:56:58.244Z,1013.768
2023-05-22T18:01:58.685Z,1013.778
2023-05-22T18:06:58.002Z,1013.853
2023-05-22T18:11:59.007Z,1013.86
2023-05-22T18:16:58.328Z,1013.907
2023-05-22T18:21:57.997Z,1013.957
2023-05-22T18:32:39.846Z,1014.156
2023-05-22T18:37:39.690Z,1014.203
2023-05-22T18:42:39.727Z,1014.315
2023-05-22T18:47:39.761Z,1014.28
2023-05-22T18:52:39.886Z,1014.355
2023-05-22T18:57:39.738Z,1014.393
2023-05-22T19:02:39.815Z,1014.417
2023-05-22T19:07:39.767Z,1014.523
2023-05-22T19:12:39.781Z,1014.475
2023-05-22T19:17:39.859Z,1014.572
2023-05-22T19:22:39.742Z,1014.611
2023-05-22T19:27:39.848Z,1014.687
2023-05-22T19:32:39.843Z,1014.733
2023-05-22T19:37:39.729Z,1014.845
2023-05-22T19:42:41.173Z,1014.843
2023-05-22T19:47:39.849Z,1014.843
2023-05-22T19:52:39.795Z,1014.929
2023-05-22T19:57:39.792Z,1014.972
2023-05-22T20:02:39.835Z,1015.112
2023-05-22T20:07:39.865Z,1015.164
2023-05-22T20:12:40.117Z,1015.22
2023-05-22T20:17:41.606Z,1015.211
2023-05-22T20:22:39.857Z,1015.157
2023-05-22T20:27:39.986Z,1015.222
2023-05-22T20:32:40.118Z,1015.201
2023-05-22T20:37:41.435Z,1015.271
2023-05-22T20:42:40.869Z,1015.346
2023-05-22T20:47:40.154Z,1015.412
2023-05-22T20:52:40.442Z,1015.46
2023-05-22T20:57:39.863Z,1015.517
2023-05-22T21:02:39.925Z,1015.553
2023-05-22T21:07:39.922Z,1015.67
2023-05-22T21:12:39.822Z,1015.631
2023-05-22T21:17:39.899Z,1015.742
2023-05-22T21:22:39.983Z,1015.733
2023-05-22T21:27:39.865Z,1015.778
2023-05-22T21:32:39.919Z,1015.767
2023-05-22T21:37:40.214Z,1015.813
2023-05-22T21:42:46.669Z,1015.892
2023-05-22T21:47:39.968Z,1015.877
2023-05-22T21:52:39.960Z,1015.975
2023-05-22T21:57:39.891Z,1015.948
2023-05-22T22:02:39.984Z,1015.904
2023-05-22T22:07:39.847Z,1015.874
2023-05-22T22:12:39.986Z,1015.895
2023-05-22T22:17:40.591Z,1015.881
2023-05-22T22:22:39.941Z,1015.866
2023-05-22T22:27:39.980Z,1015.811
2023-05-22T22:32:39.957Z,1015.693
2023-05-22T22:37:40.203Z,1015.754
2023-05-22T22:42:39.942Z,1015.848
2023-05-22T22:47:39.955Z,1015.847
2023-05-22T22:52:40.023Z,1015.691
2023-05-22T22:57:43.040Z,1015.744
2023-05-22T23:02:40.149Z,1015.663
2023-05-22T23:07:39.959Z,1015.716
2023-05-22T23:12:40.014Z,1015.801
2023-05-22T23:17:40.052Z,1015.816
2023-05-22T23:22:39.997Z,1015.745
2023-05-22T23:27:40.172Z,1015.703
2023-05-22T23:32:40.009Z,1015.742
2023-05-22T23:37:40.133Z,1015.705
2023-05-22T23:42:40.116Z,1015.701
2023-05-22T23:47:40.049Z,1015.821
2023-05-22T23:52:40.019Z,1015.836
2023-05-22T23:57:40.005Z,1015.89
